sensor_id;sensor_type;location;lat;lon;timestamp;temperature;humidity
68354;DHT22;55274;43.060;25.618;2022-08-26T00:00:46;22.40;81.50
68354;DHT22;55274;43.060;25.618;2022-08-26T00:03:12;22.30;81.60
68354;DHT22;55274;43.060;25.618;2022-08-26T00:05:39;22.30;81.70
68354;DHT22;55274;43.060;25.618;2022-08-26T00:08:06;22.30;81.60
68354;DHT22;55274;43.060;25.618;2022-08-26T00:10:32;22.30;81.30
68354;DHT22;55274;43.060;25.618;2022-08-26T00:12:58;22.30;82.20
68354;DHT22;55274;43.060;25.618;2022-08-26T00:15:24;22.20;82.50
68354;DHT22;55274;43.060;25.618;2022-08-26T00:17:52;22.20;82.20
68354;DHT22;55274;43.060;25.618;2022-08-26T00:20:21;22.20;82.00
68354;DHT22;55274;43.060;25.618;2022-08-26T00:22:48;22.10;82.10
68354;DHT22;55274;43.060;25.618;2022-08-26T00:25:14;22.10;82.40
68354;DHT22;55274;43.060;25.618;2022-08-26T00:27:40;22.00;82.70
68354;DHT22;55274;43.060;25.618;2022-08-26T00:30:11;22.00;82.70
68354;DHT22;55274;43.060;25.618;2022-08-26T00:32:37;22.00;82.70
68354;DHT22;55274;43.060;25.618;2022-08-26T00:35:04;22.00;83.00
68354;DHT22;55274;43.060;25.618;2022-08-26T00:37:30;21.90;83.30
68354;DHT22;55274;43.060;25.618;2022-08-26T00:39:57;21.80;83.60
68354;DHT22;55274;43.060;25.618;2022-08-26T00:42:23;21.80;83.60
68354;DHT22;55274;43.060;25.618;2022-08-26T00:44:48;21.80;83.50
68354;DHT22;55274;43.060;25.618;2022-08-26T00:48:01;21.80;83.80
68354;DHT22;55274;43.060;25.618;2022-08-26T00:50:24;21.70;84.00
68354;DHT22;55274;43.060;25.618;2022-08-26T00:52:52;21.60;84.20
68354;DHT22;55274;43.060;25.618;2022-08-26T00:55:23;21.60;84.30
68354;DHT22;55274;43.060;25.618;2022-08-26T00:57:51;21.60;84.50
68354;DHT22;55274;43.060;25.618;2022-08-26T01:00:22;21.60;84.20
68354;DHT22;55274;43.060;25.618;2022-08-26T01:02:48;21.50;84.20
68354;DHT22;55274;43.060;25.618;2022-08-26T01:05:16;21.40;84.10
68354;DHT22;55274;43.060;25.618;2022-08-26T01:07:42;21.50;84.10
68354;DHT22;55274;43.060;25.618;2022-08-26T01:10:17;21.50;84.40
68354;DHT22;55274;43.060;25.618;2022-08-26T01:12:47;21.50;84.30
68354;DHT22;55274;43.060;25.618;2022-08-26T01:15:29;21.50;84.40
68354;DHT22;55274;43.060;25.618;2022-08-26T01:17:58;21.40;84.00
68354;DHT22;55274;43.060;25.618;2022-08-26T01:23:01;21.40;84.20
68354;DHT22;55274;43.060;25.618;2022-08-26T01:25:29;21.30;84.50
68354;DHT22;55274;43.060;25.618;2022-08-26T01:28:01;21.30;85.10
68354;DHT22;55274;43.060;25.618;2022-08-26T01:30:28;21.30;85.10
68354;DHT22;55274;43.060;25.618;2022-08-26T01:32:57;21.30;85.10
68354;DHT22;55274;43.060;25.618;2022-08-26T01:35:24;21.30;84.90
68354;DHT22;55274;43.060;25.618;2022-08-26T01:37:53;21.20;85.20
68354;DHT22;55274;43.060;25.618;2022-08-26T01:40:25;21.20;85.40
68354;DHT22;55274;43.060;25.618;2022-08-26T01:42:53;21.10;85.30
68354;DHT22;55274;43.060;25.618;2022-08-26T01:45:22;21.10;85.40
68354;DHT22;55274;43.060;25.618;2022-08-26T01:47:51;21.10;85.60
68354;DHT22;55274;43.060;25.618;2022-08-26T01:50:23;21.20;85.60
68354;DHT22;55274;43.060;25.618;2022-08-26T01:52:50;21.20;85.60
68354;DHT22;55274;43.060;25.618;2022-08-26T01:55:18;21.10;85.90
68354;DHT22;55274;43.060;25.618;2022-08-26T01:57:47;21.10;86.10
68354;DHT22;55274;43.060;25.618;2022-08-26T02:00:15;21.10;86.10
68354;DHT22;55274;43.060;25.618;2022-08-26T02:02:43;21.10;86.00
68354;DHT22;55274;43.060;25.618;2022-08-26T02:05:13;21.10;85.70
68354;DHT22;55274;43.060;25.618;2022-08-26T02:07:39;21.10;85.70
68354;DHT22;55274;43.060;25.618;2022-08-26T02:10:06;21.10;85.90
68354;DHT22;55274;43.060;25.618;2022-08-26T02:12:33;21.00;85.10
68354;DHT22;55274;43.060;25.618;2022-08-26T02:15:01;21.10;85.60
68354;DHT22;55274;43.060;25.618;2022-08-26T02:17:33;21.00;85.60
68354;DHT22;55274;43.060;25.618;2022-08-26T02:19:59;21.10;85.40
68354;DHT22;55274;43.060;25.618;2022-08-26T02:22:26;21.00;85.40
68354;DHT22;55274;43.060;25.618;2022-08-26T02:24:58;21.00;85.10
68354;DHT22;55274;43.060;25.618;2022-08-26T02:27:30;21.00;85.20
68354;DHT22;55274;43.060;25.618;2022-08-26T02:30:12;21.00;84.90
68354;DHT22;55274;43.060;25.618;2022-08-26T02:32:39;21.00;84.80
68354;DHT22;55274;43.060;25.618;2022-08-26T02:35:06;21.00;84.80
68354;DHT22;55274;43.060;25.618;2022-08-26T02:37:32;21.00;85.20
68354;DHT22;55274;43.060;25.618;2022-08-26T02:39:59;21.00;85.30
68354;DHT22;55274;43.060;25.618;2022-08-26T02:42:25;21.00;85.90
68354;DHT22;55274;43.060;25.618;2022-08-26T02:44:50;21.00;86.40
68354;DHT22;55274;43.060;25.618;2022-08-26T02:47:16;21.00;86.40
68354;DHT22;55274;43.060;25.618;2022-08-26T02:49:42;21.00;85.70
68354;DHT22;55274;43.060;25.618;2022-08-26T02:52:09;21.00;84.80
68354;DHT22;55274;43.060;25.618;2022-08-26T02:54:35;21.00;84.80
68354;DHT22;55274;43.060;25.618;2022-08-26T02:57:01;21.00;85.10
68354;DHT22;55274;43.060;25.618;2022-08-26T02:59:27;21.00;85.20
68354;DHT22;55274;43.060;25.618;2022-08-26T03:01:54;21.00;85.60
68354;DHT22;55274;43.060;25.618;2022-08-26T03:04:20;20.90;86.00
68354;DHT22;55274;43.060;25.618;2022-08-26T03:06:46;20.90;86.60
68354;DHT22;55274;43.060;25.618;2022-08-26T03:09:14;20.80;86.90
68354;DHT22;55274;43.060;25.618;2022-08-26T03:11:40;20.80;86.70
68354;DHT22;55274;43.060;25.618;2022-08-26T03:14:06;20.80;86.70
68354;DHT22;55274;43.060;25.618;2022-08-26T03:16:34;20.80;86.70
68354;DHT22;55274;43.060;25.618;2022-08-26T03:19:01;20.70;86.90
68354;DHT22;55274;43.060;25.618;2022-08-26T03:21:27;20.70;86.90
68354;DHT22;55274;43.060;25.618;2022-08-26T03:23:53;20.70;86.90
68354;DHT22;55274;43.060;25.618;2022-08-26T03:26:19;20.70;87.00
68354;DHT22;55274;43.060;25.618;2022-08-26T03:28:45;20.70;86.70
68354;DHT22;55274;43.060;25.618;2022-08-26T03:31:29;20.70;86.70
68354;DHT22;55274;43.060;25.618;2022-08-26T03:33:56;20.70;86.60
68354;DHT22;55274;43.060;25.618;2022-08-26T03:36:22;20.70;87.00
68354;DHT22;55274;43.060;25.618;2022-08-26T03:38:48;20.70;87.10
68354;DHT22;55274;43.060;25.618;2022-08-26T03:41:14;20.70;87.20
68354;DHT22;55274;43.060;25.618;2022-08-26T03:43:39;20.60;87.30
68354;DHT22;55274;43.060;25.618;2022-08-26T03:46:10;20.60;87.30
68354;DHT22;55274;43.060;25.618;2022-08-26T03:48:37;20.60;87.40
68354;DHT22;55274;43.060;25.618;2022-08-26T03:51:04;20.60;87.60
68354;DHT22;55274;43.060;25.618;2022-08-26T03:53:35;20.60;87.60
68354;DHT22;55274;43.060;25.618;2022-08-26T03:56:01;20.60;87.40
68354;DHT22;55274;43.060;25.618;2022-08-26T03:58:27;20.50;87.20
68354;DHT22;55274;43.060;25.618;2022-08-26T04:00:53;20.60;87.20
68354;DHT22;55274;43.060;25.618;2022-08-26T04:03:19;20.50;87.30
68354;DHT22;55274;43.060;25.618;2022-08-26T04:06:05;20.60;87.10
68354;DHT22;55274;43.060;25.618;2022-08-26T04:08:30;20.60;87.00
68354;DHT22;55274;43.060;25.618;2022-08-26T04:10:56;20.60;87.20
68354;DHT22;55274;43.060;25.618;2022-08-26T04:13:22;20.60;88.00
68354;DHT22;55274;43.060;25.618;2022-08-26T04:15:48;20.60;88.10
68354;DHT22;55274;43.060;25.618;2022-08-26T04:18:15;20.60;87.70
68354;DHT22;55274;43.060;25.618;2022-08-26T04:20:41;20.50;87.80
68354;DHT22;55274;43.060;25.618;2022-08-26T04:23:07;20.60;87.90
68354;DHT22;55274;43.060;25.618;2022-08-26T04:25:33;20.60;87.80
68354;DHT22;55274;43.060;25.618;2022-08-26T04:27:59;20.60;88.00
68354;DHT22;55274;43.060;25.618;2022-08-26T04:30:25;20.70;87.90
68354;DHT22;55274;43.060;25.618;2022-08-26T04:32:50;20.70;87.70
68354;DHT22;55274;43.060;25.618;2022-08-26T04:35:17;20.80;87.80
68354;DHT22;55274;43.060;25.618;2022-08-26T04:37:43;20.70;88.10
68354;DHT22;55274;43.060;25.618;2022-08-26T04:40:09;20.80;88.00
68354;DHT22;55274;43.060;25.618;2022-08-26T04:42:35;20.80;87.20
68354;DHT22;55274;43.060;25.618;2022-08-26T04:45:02;20.90;87.20
68354;DHT22;55274;43.060;25.618;2022-08-26T04:47:28;20.90;87.20
68354;DHT22;55274;43.060;25.618;2022-08-26T04:49:55;21.00;87.30
68354;DHT22;55274;43.060;25.618;2022-08-26T04:52:20;21.00;87.10
68354;DHT22;55274;43.060;25.618;2022-08-26T04:54:46;21.00;86.60
68354;DHT22;55274;43.060;25.618;2022-08-26T04:57:12;21.10;86.30
68354;DHT22;55274;43.060;25.618;2022-08-26T04:59:38;21.20;86.30
68354;DHT22;55274;43.060;25.618;2022-08-26T05:02:04;21.30;86.20
68354;DHT22;55274;43.060;25.618;2022-08-26T05:04:32;21.30;86.00
68354;DHT22;55274;43.060;25.618;2022-08-26T05:06:58;21.30;85.90
68354;DHT22;55274;43.060;25.618;2022-08-26T05:09:24;21.40;85.90
68354;DHT22;55274;43.060;25.618;2022-08-26T05:11:50;21.50;85.40
68354;DHT22;55274;43.060;25.618;2022-08-26T05:14:16;21.50;85.50
68354;DHT22;55274;43.060;25.618;2022-08-26T05:16:42;21.60;85.70
68354;DHT22;55274;43.060;25.618;2022-08-26T05:19:08;21.60;85.70
68354;DHT22;55274;43.060;25.618;2022-08-26T05:21:36;21.60;85.00
68354;DHT22;55274;43.060;25.618;2022-08-26T05:24:03;21.70;84.80
68354;DHT22;55274;43.060;25.618;2022-08-26T05:26:31;21.70;84.30
68354;DHT22;55274;43.060;25.618;2022-08-26T05:28:57;21.80;84.40
68354;DHT22;55274;43.060;25.618;2022-08-26T05:31:26;21.90;83.50
68354;DHT22;55274;43.060;25.618;2022-08-26T05:33:52;21.90;83.70
68354;DHT22;55274;43.060;25.618;2022-08-26T05:36:21;21.90;82.50
68354;DHT22;55274;43.060;25.618;2022-08-26T05:38:47;22.00;84.10
68354;DHT22;55274;43.060;25.618;2022-08-26T05:41:19;22.10;84.80
68354;DHT22;55274;43.060;25.618;2022-08-26T05:43:46;22.10;84.00
68354;DHT22;55274;43.060;25.618;2022-08-26T05:46:12;22.10;84.10
68354;DHT22;55274;43.060;25.618;2022-08-26T05:48:38;22.20;84.30
68354;DHT22;55274;43.060;25.618;2022-08-26T05:51:06;22.20;83.00
68354;DHT22;55274;43.060;25.618;2022-08-26T05:53:34;22.20;83.10
68354;DHT22;55274;43.060;25.618;2022-08-26T05:56:01;22.30;83.60
68354;DHT22;55274;43.060;25.618;2022-08-26T05:58:27;22.40;83.50
68354;DHT22;55274;43.060;25.618;2022-08-26T06:01:14;22.50;82.10
68354;DHT22;55274;43.060;25.618;2022-08-26T06:03:43;22.70;81.50
68354;DHT22;55274;43.060;25.618;2022-08-26T06:06:16;22.80;79.60
68354;DHT22;55274;43.060;25.618;2022-08-26T06:08:43;22.90;79.30
68354;DHT22;55274;43.060;25.618;2022-08-26T06:11:12;23.00;79.60
68354;DHT22;55274;43.060;25.618;2022-08-26T06:13:39;23.10;79.50
68354;DHT22;55274;43.060;25.618;2022-08-26T06:16:11;23.20;79.40
68354;DHT22;55274;43.060;25.618;2022-08-26T06:18:42;23.40;77.90
68354;DHT22;55274;43.060;25.618;2022-08-26T06:21:18;23.60;77.80
68354;DHT22;55274;43.060;25.618;2022-08-26T06:23:45;23.80;77.60
68354;DHT22;55274;43.060;25.618;2022-08-26T06:26:31;23.90;76.20
68354;DHT22;55274;43.060;25.618;2022-08-26T06:28:57;24.10;75.00
68354;DHT22;55274;43.060;25.618;2022-08-26T06:31:24;24.20;74.80
68354;DHT22;55274;43.060;25.618;2022-08-26T06:33:51;24.20;73.60
68354;DHT22;55274;43.060;25.618;2022-08-26T06:36:19;24.40;73.70
68354;DHT22;55274;43.060;25.618;2022-08-26T06:38:49;24.50;73.60
68354;DHT22;55274;43.060;25.618;2022-08-26T06:41:16;24.70;73.00
68354;DHT22;55274;43.060;25.618;2022-08-26T06:43:42;24.90;72.20
68354;DHT22;55274;43.060;25.618;2022-08-26T06:46:11;25.20;68.80
68354;DHT22;55274;43.060;25.618;2022-08-26T06:48:37;25.50;66.60
68354;DHT22;55274;43.060;25.618;2022-08-26T06:51:12;25.80;63.00
68354;DHT22;55274;43.060;25.618;2022-08-26T06:53:40;26.00;62.10
68354;DHT22;55274;43.060;25.618;2022-08-26T06:56:08;26.10;60.70
68354;DHT22;55274;43.060;25.618;2022-08-26T06:58:36;26.00;60.30
68354;DHT22;55274;43.060;25.618;2022-08-26T07:01:02;26.10;59.90
68354;DHT22;55274;43.060;25.618;2022-08-26T07:03:28;26.20;58.50
68354;DHT22;55274;43.060;25.618;2022-08-26T07:06:01;26.20;59.40
68354;DHT22;55274;43.060;25.618;2022-08-26T07:08:27;26.20;58.80
68354;DHT22;55274;43.060;25.618;2022-08-26T07:10:52;26.30;58.70
68354;DHT22;55274;43.060;25.618;2022-08-26T07:13:18;26.30;58.10
68354;DHT22;55274;43.060;25.618;2022-08-26T07:15:47;26.30;57.30
68354;DHT22;55274;43.060;25.618;2022-08-26T07:18:13;26.30;58.70
68354;DHT22;55274;43.060;25.618;2022-08-26T07:20:39;26.40;58.10
68354;DHT22;55274;43.060;25.618;2022-08-26T07:23:07;26.40;57.40
68354;DHT22;55274;43.060;25.618;2022-08-26T07:25:33;26.40;57.10
68354;DHT22;55274;43.060;25.618;2022-08-26T07:27:59;26.40;57.20
68354;DHT22;55274;43.060;25.618;2022-08-26T07:30:25;26.50;56.40
68354;DHT22;55274;43.060;25.618;2022-08-26T07:32:55;26.50;56.20
68354;DHT22;55274;43.060;25.618;2022-08-26T07:35:21;26.50;54.70
68354;DHT22;55274;43.060;25.618;2022-08-26T07:37:46;26.60;54.90
68354;DHT22;55274;43.060;25.618;2022-08-26T07:40:12;26.70;52.70
68354;DHT22;55274;43.060;25.618;2022-08-26T07:42:38;26.80;51.60
68354;DHT22;55274;43.060;25.618;2022-08-26T07:45:05;26.90;51.00
68354;DHT22;55274;43.060;25.618;2022-08-26T07:47:31;26.90;49.90
68354;DHT22;55274;43.060;25.618;2022-08-26T07:49:57;27.10;49.90
68354;DHT22;55274;43.060;25.618;2022-08-26T07:52:25;27.40;50.20
68354;DHT22;55274;43.060;25.618;2022-08-26T07:54:51;27.90;48.00
68354;DHT22;55274;43.060;25.618;2022-08-26T07:57:17;28.30;47.50
68354;DHT22;55274;43.060;25.618;2022-08-26T07:59:42;28.40;45.80
68354;DHT22;55274;43.060;25.618;2022-08-26T08:02:08;28.60;45.40
68354;DHT22;55274;43.060;25.618;2022-08-26T08:04:34;28.90;42.90
68354;DHT22;55274;43.060;25.618;2022-08-26T08:07:00;29.20;41.20
68354;DHT22;55274;43.060;25.618;2022-08-26T08:09:25;29.20;42.10
68354;DHT22;55274;43.060;25.618;2022-08-26T08:11:51;29.20;42.50
68354;DHT22;55274;43.060;25.618;2022-08-26T08:14:18;29.10;42.20
68354;DHT22;55274;43.060;25.618;2022-08-26T08:16:44;29.10;41.20
68354;DHT22;55274;43.060;25.618;2022-08-26T08:19:10;29.30;40.60
68354;DHT22;55274;43.060;25.618;2022-08-26T08:21:36;29.30;40.70
68354;DHT22;55274;43.060;25.618;2022-08-26T08:24:02;29.30;41.20
68354;DHT22;55274;43.060;25.618;2022-08-26T08:26:27;29.40;41.20
68354;DHT22;55274;43.060;25.618;2022-08-26T08:28:55;29.50;40.10
68354;DHT22;55274;43.060;25.618;2022-08-26T08:31:26;30.10;39.70
68354;DHT22;55274;43.060;25.618;2022-08-26T08:33:52;30.20;38.00
68354;DHT22;55274;43.060;25.618;2022-08-26T08:36:18;30.80;38.30
68354;DHT22;55274;43.060;25.618;2022-08-26T08:38:44;31.40;37.60
68354;DHT22;55274;43.060;25.618;2022-08-26T08:43:49;32.10;35.50
68354;DHT22;55274;43.060;25.618;2022-08-26T08:46:16;32.60;35.60
68354;DHT22;55274;43.060;25.618;2022-08-26T08:48:50;32.80;33.90
68354;DHT22;55274;43.060;25.618;2022-08-26T08:51:39;32.50;34.30
68354;DHT22;55274;43.060;25.618;2022-08-26T08:54:06;32.20;34.90
68354;DHT22;55274;43.060;25.618;2022-08-26T08:56:37;31.70;34.90
68354;DHT22;55274;43.060;25.618;2022-08-26T09:01:54;31.30;36.90
68354;DHT22;55274;43.060;25.618;2022-08-26T09:07:54;31.10;36.00
68354;DHT22;55274;43.060;25.618;2022-08-26T09:12:54;31.40;35.40
68354;DHT22;55274;43.060;25.618;2022-08-26T09:20:48;31.40;34.90
68354;DHT22;55274;43.060;25.618;2022-08-26T09:23:17;31.20;35.00
68354;DHT22;55274;43.060;25.618;2022-08-26T09:25:56;31.20;35.30
68354;DHT22;55274;43.060;25.618;2022-08-26T09:28:24;31.00;34.40
68354;DHT22;55274;43.060;25.618;2022-08-26T09:33:31;31.30;34.80
68354;DHT22;55274;43.060;25.618;2022-08-26T09:38:40;31.40;33.70
68354;DHT22;55274;43.060;25.618;2022-08-26T09:41:23;31.30;33.50
68354;DHT22;55274;43.060;25.618;2022-08-26T09:44:17;31.50;35.00
68354;DHT22;55274;43.060;25.618;2022-08-26T09:46:52;31.50;33.90
68354;DHT22;55274;43.060;25.618;2022-08-26T09:49:24;31.40;32.60
68354;DHT22;55274;43.060;25.618;2022-08-26T09:52:14;31.40;32.70
68354;DHT22;55274;43.060;25.618;2022-08-26T09:54:43;31.30;33.10
68354;DHT22;55274;43.060;25.618;2022-08-26T09:57:23;31.20;33.20
68354;DHT22;55274;43.060;25.618;2022-08-26T09:59:50;31.10;33.50
68354;DHT22;55274;43.060;25.618;2022-08-26T10:04:57;31.00;33.80
68354;DHT22;55274;43.060;25.618;2022-08-26T10:07:41;31.00;33.80
68354;DHT22;55274;43.060;25.618;2022-08-26T10:10:15;30.80;33.20
68354;DHT22;55274;43.060;25.618;2022-08-26T10:12:50;30.70;32.70
68354;DHT22;55274;43.060;25.618;2022-08-26T10:15:18;30.70;34.60
68354;DHT22;55274;43.060;25.618;2022-08-26T10:20:33;30.20;33.90
68354;DHT22;55274;43.060;25.618;2022-08-26T10:23:12;30.30;33.70
68354;DHT22;55274;43.060;25.618;2022-08-26T10:25:54;30.00;34.80
68354;DHT22;55274;43.060;25.618;2022-08-26T10:28:29;30.10;35.20
68354;DHT22;55274;43.060;25.618;2022-08-26T10:31:16;30.30;35.80
68354;DHT22;55274;43.060;25.618;2022-08-26T10:33:43;30.50;35.50
68354;DHT22;55274;43.060;25.618;2022-08-26T10:36:12;30.50;34.40
68354;DHT22;55274;43.060;25.618;2022-08-26T10:39:03;30.50;34.10
68354;DHT22;55274;43.060;25.618;2022-08-26T10:41:38;30.60;34.30
68354;DHT22;55274;43.060;25.618;2022-08-26T10:44:07;30.90;33.70
68354;DHT22;55274;43.060;25.618;2022-08-26T10:46:46;31.30;33.70
68354;DHT22;55274;43.060;25.618;2022-08-26T10:49:15;31.70;31.70
68354;DHT22;55274;43.060;25.618;2022-08-26T10:52:04;32.00;32.80
68354;DHT22;55274;43.060;25.618;2022-08-26T11:03:26;33.10;30.90
68354;DHT22;55274;43.060;25.618;2022-08-26T11:08:53;33.20;31.30
68354;DHT22;55274;43.060;25.618;2022-08-26T11:30:08;33.30;30.60
68354;DHT22;55274;43.060;25.618;2022-08-26T11:32:55;33.30;30.60
68354;DHT22;55274;43.060;25.618;2022-08-26T11:37:53;33.50;29.80
68354;DHT22;55274;43.060;25.618;2022-08-26T11:40:26;33.70;28.60
68354;DHT22;55274;43.060;25.618;2022-08-26T11:43:07;33.80;28.10
68354;DHT22;55274;43.060;25.618;2022-08-26T11:45:40;33.90;28.90
68354;DHT22;55274;43.060;25.618;2022-08-26T11:48:16;33.60;30.10
68354;DHT22;55274;43.060;25.618;2022-08-26T11:50:52;33.60;31.70
68354;DHT22;55274;43.060;25.618;2022-08-26T11:53:18;33.90;31.30
68354;DHT22;55274;43.060;25.618;2022-08-26T11:55:44;34.00;31.50
68354;DHT22;55274;43.060;25.618;2022-08-26T11:58:12;33.90;30.50
68354;DHT22;55274;43.060;25.618;2022-08-26T12:00:55;34.00;31.00
68354;DHT22;55274;43.060;25.618;2022-08-26T12:03:46;34.00;29.90
68354;DHT22;55274;43.060;25.618;2022-08-26T12:06:23;34.10;30.40
68354;DHT22;55274;43.060;25.618;2022-08-26T12:08:51;34.10;29.70
68354;DHT22;55274;43.060;25.618;2022-08-26T12:14:01;34.10;29.40
68354;DHT22;55274;43.060;25.618;2022-08-26T12:16:32;34.10;30.00
68354;DHT22;55274;43.060;25.618;2022-08-26T12:19:19;34.10;28.60
68354;DHT22;55274;43.060;25.618;2022-08-26T12:21:46;33.90;29.70
68354;DHT22;55274;43.060;25.618;2022-08-26T12:24:17;33.90;30.50
68354;DHT22;55274;43.060;25.618;2022-08-26T12:26:44;34.00;29.90
68354;DHT22;55274;43.060;25.618;2022-08-26T12:29:25;33.70;29.00
68354;DHT22;55274;43.060;25.618;2022-08-26T12:32:06;33.50;29.80
68354;DHT22;55274;43.060;25.618;2022-08-26T12:34:32;33.50;29.30
68354;DHT22;55274;43.060;25.618;2022-08-26T12:36:58;33.50;29.60
68354;DHT22;55274;43.060;25.618;2022-08-26T12:41:59;33.50;28.80
68354;DHT22;55274;43.060;25.618;2022-08-26T12:44:43;33.50;29.10
68354;DHT22;55274;43.060;25.618;2022-08-26T12:47:10;33.60;29.90
68354;DHT22;55274;43.060;25.618;2022-08-26T12:49:41;33.50;29.20
68354;DHT22;55274;43.060;25.618;2022-08-26T12:52:23;33.50;29.00
68354;DHT22;55274;43.060;25.618;2022-08-26T12:55:06;33.40;29.70
68354;DHT22;55274;43.060;25.618;2022-08-26T12:57:34;33.20;29.70
68354;DHT22;55274;43.060;25.618;2022-08-26T13:02:52;33.30;29.80
68354;DHT22;55274;43.060;25.618;2022-08-26T13:05:21;33.30;29.50
68354;DHT22;55274;43.060;25.618;2022-08-26T13:08:16;33.20;30.30
68354;DHT22;55274;43.060;25.618;2022-08-26T13:12:00;33.00;30.30
68354;DHT22;55274;43.060;25.618;2022-08-26T13:13:59;32.80;29.20
68354;DHT22;55274;43.060;25.618;2022-08-26T13:16:25;32.70;29.80
68354;DHT22;55274;43.060;25.618;2022-08-26T13:18:59;32.80;30.20
68354;DHT22;55274;43.060;25.618;2022-08-26T13:21:31;32.70;30.50
68354;DHT22;55274;43.060;25.618;2022-08-26T13:24:07;32.80;30.40
68354;DHT22;55274;43.060;25.618;2022-08-26T13:26:34;32.70;30.00
68354;DHT22;55274;43.060;25.618;2022-08-26T13:29:00;32.80;32.30
68354;DHT22;55274;43.060;25.618;2022-08-26T13:31:27;32.80;30.60
68354;DHT22;55274;43.060;25.618;2022-08-26T13:33:55;32.80;30.40
68354;DHT22;55274;43.060;25.618;2022-08-26T13:36:21;32.70;31.20
68354;DHT22;55274;43.060;25.618;2022-08-26T13:38:47;32.60;30.80
68354;DHT22;55274;43.060;25.618;2022-08-26T13:41:12;32.70;31.00
68354;DHT22;55274;43.060;25.618;2022-08-26T13:43:39;32.70;30.80
68354;DHT22;55274;43.060;25.618;2022-08-26T13:46:04;32.60;30.30
68354;DHT22;55274;43.060;25.618;2022-08-26T13:48:30;32.60;30.80
68354;DHT22;55274;43.060;25.618;2022-08-26T13:50:59;32.40;31.40
68354;DHT22;55274;43.060;25.618;2022-08-26T13:53:25;32.40;32.40
68354;DHT22;55274;43.060;25.618;2022-08-26T13:55:53;32.30;31.50
68354;DHT22;55274;43.060;25.618;2022-08-26T13:58:19;32.20;31.70
68354;DHT22;55274;43.060;25.618;2022-08-26T14:00:45;32.10;32.00
68354;DHT22;55274;43.060;25.618;2022-08-26T14:03:11;32.20;31.90
68354;DHT22;55274;43.060;25.618;2022-08-26T14:05:37;32.10;31.90
68354;DHT22;55274;43.060;25.618;2022-08-26T14:08:03;32.10;32.50
68354;DHT22;55274;43.060;25.618;2022-08-26T14:10:28;32.10;32.70
68354;DHT22;55274;43.060;25.618;2022-08-26T14:12:55;32.10;32.70
68354;DHT22;55274;43.060;25.618;2022-08-26T14:15:21;31.90;32.70
68354;DHT22;55274;43.060;25.618;2022-08-26T14:17:47;31.90;34.10
68354;DHT22;55274;43.060;25.618;2022-08-26T14:20:20;31.80;33.70
68354;DHT22;55274;43.060;25.618;2022-08-26T14:22:47;31.70;33.20
68354;DHT22;55274;43.060;25.618;2022-08-26T14:25:13;31.70;33.60
68354;DHT22;55274;43.060;25.618;2022-08-26T14:27:39;31.60;33.90
68354;DHT22;55274;43.060;25.618;2022-08-26T14:30:06;31.60;35.10
68354;DHT22;55274;43.060;25.618;2022-08-26T14:32:33;31.60;36.00
68354;DHT22;55274;43.060;25.618;2022-08-26T14:34:59;31.60;37.60
68354;DHT22;55274;43.060;25.618;2022-08-26T14:37:25;31.50;36.30
68354;DHT22;55274;43.060;25.618;2022-08-26T14:39:51;31.40;36.10
68354;DHT22;55274;43.060;25.618;2022-08-26T14:42:21;31.30;35.80
68354;DHT22;55274;43.060;25.618;2022-08-26T14:44:52;31.30;35.40
68354;DHT22;55274;43.060;25.618;2022-08-26T14:47:19;31.40;36.50
68354;DHT22;55274;43.060;25.618;2022-08-26T14:49:45;31.40;35.90
68354;DHT22;55274;43.060;25.618;2022-08-26T14:52:11;31.40;39.40
68354;DHT22;55274;43.060;25.618;2022-08-26T14:54:37;31.40;37.60
68354;DHT22;55274;43.060;25.618;2022-08-26T14:57:06;31.40;40.00
68354;DHT22;55274;43.060;25.618;2022-08-26T14:59:44;31.30;39.60
68354;DHT22;55274;43.060;25.618;2022-08-26T15:02:12;31.40;41.20
68354;DHT22;55274;43.060;25.618;2022-08-26T15:04:38;31.20;41.20
68354;DHT22;55274;43.060;25.618;2022-08-26T15:07:05;31.20;40.80
68354;DHT22;55274;43.060;25.618;2022-08-26T15:09:33;31.10;41.00
68354;DHT22;55274;43.060;25.618;2022-08-26T15:12:00;31.10;42.60
68354;DHT22;55274;43.060;25.618;2022-08-26T15:14:26;31.00;42.40
68354;DHT22;55274;43.060;25.618;2022-08-26T15:16:54;31.00;43.80
68354;DHT22;55274;43.060;25.618;2022-08-26T15:19:22;31.00;43.40
68354;DHT22;55274;43.060;25.618;2022-08-26T15:21:49;31.00;43.30
68354;DHT22;55274;43.060;25.618;2022-08-26T15:24:19;31.00;42.70
68354;DHT22;55274;43.060;25.618;2022-08-26T15:26:45;31.00;44.00
68354;DHT22;55274;43.060;25.618;2022-08-26T15:29:12;31.00;44.80
68354;DHT22;55274;43.060;25.618;2022-08-26T15:31:38;31.00;44.90
68354;DHT22;55274;43.060;25.618;2022-08-26T15:34:06;31.00;45.20
68354;DHT22;55274;43.060;25.618;2022-08-26T15:36:34;31.00;46.30
68354;DHT22;55274;43.060;25.618;2022-08-26T15:39:03;30.80;48.30
68354;DHT22;55274;43.060;25.618;2022-08-26T15:41:29;30.60;48.60
68354;DHT22;55274;43.060;25.618;2022-08-26T15:43:56;30.50;48.40
68354;DHT22;55274;43.060;25.618;2022-08-26T15:46:23;30.50;51.10
68354;DHT22;55274;43.060;25.618;2022-08-26T15:48:48;30.40;51.10
68354;DHT22;55274;43.060;25.618;2022-08-26T15:53:45;30.40;50.30
68354;DHT22;55274;43.060;25.618;2022-08-26T15:56:10;30.30;50.40
68354;DHT22;55274;43.060;25.618;2022-08-26T15:58:36;30.20;50.10
68354;DHT22;55274;43.060;25.618;2022-08-26T16:01:02;30.10;50.30
68354;DHT22;55274;43.060;25.618;2022-08-26T16:03:28;30.10;50.90
68354;DHT22;55274;43.060;25.618;2022-08-26T16:05:54;30.00;50.10
68354;DHT22;55274;43.060;25.618;2022-08-26T16:08:20;30.00;50.40
68354;DHT22;55274;43.060;25.618;2022-08-26T16:10:47;29.90;52.00
68354;DHT22;55274;43.060;25.618;2022-08-26T16:13:14;29.80;50.60
68354;DHT22;55274;43.060;25.618;2022-08-26T16:15:39;29.80;50.60
68354;DHT22;55274;43.060;25.618;2022-08-26T16:18:06;29.70;51.90
68354;DHT22;55274;43.060;25.618;2022-08-26T16:20:34;29.70;52.60
68354;DHT22;55274;43.060;25.618;2022-08-26T16:23:03;29.60;53.70
68354;DHT22;55274;43.060;25.618;2022-08-26T16:25:30;29.60;53.30
68354;DHT22;55274;43.060;25.618;2022-08-26T16:27:55;29.50;52.70
68354;DHT22;55274;43.060;25.618;2022-08-26T16:30:22;29.50;52.90
68354;DHT22;55274;43.060;25.618;2022-08-26T16:32:48;29.40;52.90
68354;DHT22;55274;43.060;25.618;2022-08-26T16:35:14;29.20;54.70
68354;DHT22;55274;43.060;25.618;2022-08-26T16:37:41;29.10;54.90
68354;DHT22;55274;43.060;25.618;2022-08-26T16:40:08;29.00;54.40